Stevenson, AL (35772)

5:21 AM CDT on September 15, 2014 (GMT -0500)
Richard City | Change Station
CLOSE
Current Station
Personal Weather Station
Location: South Pittsburg, TN
Elevation: 630 ft
Nearby Weather Stations

Elev 630 ft 34.99 °N, 85.73 °W | Updated 15 seconds ago

Mostly Cloudy
Mostly Cloudy
63.0 °F
Feels Like 63.0 °F
N
0.0
Wind Variable Wind from West
Gusts 0.0 mph

Today
High -- | Low -- °F
--% Chance of Precip.
Yesterday
High -- | Low -- °F
Precip. -- in
6:26 AM 6:50 PM
Waning Gibbous, 57% visible
Pressure 30.19 in
Visibility 8.0 miles
Clouds Overcast 500 ft
Dew Point 59 °F
Humidity 86%
Rainfall 0.00 in
Snow Depth Not available.
UV 0 out of 12
Pollen 7.60 out of 12
Air Quality Not available.
Flu Activity Not available.
METAR K4A6 151015Z AUTO 00000KT 8SM OVC005 19/18 A3019 RMK AO2

More Conditions Fewer Conditions

Pressure 30.19 in
Visibility 8.0 miles
Clouds Overcast 500 ft
Dew Point 59 °F
Humidity 86%
Rainfall 0.00 in
Snow Depth Not available.
UV 0 out of 12
Pollen 7.60 out of 12
Air Quality Not available.
Flu Activity Not available.
METAR K4A6 151015Z AUTO 00000KT 8SM OVC005 19/18 A3019 RMK AO2

More Conditions Fewer Conditions

10-Day Weather Forecast

Almanac

Astronomy

Sep. 15, 2014 Rise Set
Actual Time 6:26 AM CDT 6:50 PM CDT
Civil Twilight 6:00 AM CDT 7:15 PM CDT
Nautical Twilight 5:31 AM CDT 7:45 PM CDT
Astronomical Twilight 5:00 AM CDT 8:15 PM CDT
Moon 11:46 PM CDT 1:12 PM CDT
Length of Visible Light 13h 14m
Length of Day
12h 23m
Tomorrow will be 2m 10s shorter.
Waning Gibbous, 57% of the Moon is Illuminated
Today
Waning Gibbous
Sep 15
Last Quarter
Sep 24
New
Oct 1
First Quarter
Oct 8
Full

Today's Extremes

State Highs State Lows

Community

WunderPhotos

Upload Photos

1,753,428 photos uploaded!

WunderBlogs® & News

Nearby

Snow Depth

Station Depth Elevation
No new snow has been reported.

Earthquake Activity

City Distance Mag. Time & Date
No recent earthquake activity has been reported nearby.
Minimum magnitude displayed is 2.5.

Coastal Water Temperatures

Place Temperature
No Stations Reporting

Nearby Weather Stations